Moselem Springs, Pennsylvania
Current Conditions -  °F | °C
As of 1:54 PM on Thursday 27 Nov 2014 (Local Time) from KRDG Reporting Station
Overcast Overcast  
Wind Chill: 32°   Ceiling: 6000
Heat Index: 37°   Visibility: 10mi
Dew Point: 28°   Wind: 7mph
Humidity: 70%   Direction: 310°NW
Pressure: 30.01"   Gusts: NA
Location:  40.4504°N, 75.8012°W
Report Text: KRDG 271854Z 31006KT 10SM FEW032 OVC060 03/M02 A3001 RMK AO2 SLP172 T00281022
Loading
Personal Weather Stations






























Interactive Weather Map New forecast layout! Learn more

10-Day Weather Forecast

Advertisements
Track Severe Weather on mobile